Time;durP1;ratioP1;P1;durP2;ratioP2;P2;SDS_P1;SDS_P2;PMS_P1;PMS_P2;Temp;Humidity;BMP_temperature;BMP_pressure;BME280_temperature;BME280_humidity;BME280_pressure;Samples;Min_cycle;Max_cycle;Signal;HPM_P1;HPM_P2
2022/03/20 00:00:47;;;;;;;7.22;4.25;;;;;;;4.60;56.45;103114.81;5030190;28;20030;-89
2022/03/20 00:03:14;;;;;;;8.52;4.50;;;;;;;4.57;56.81;103120.06;5030110;28;20040;-87
2022/03/20 00:05:42;;;;;;;7.38;4.43;;;;;;;4.53;56.94;103114.75;5025523;28;20050;-88
2022/03/20 00:08:11;;;;;;;8.48;4.50;;;;;;;4.49;57.11;103114.69;5024706;28;20122;-88
2022/03/20 00:10:48;;;;;;;8.98;4.30;;;;;;;4.45;56.97;103109.38;5030832;28;20493;-87
2022/03/20 00:13:16;;;;;;;9.38;4.55;;;;;;;4.44;57.55;103105.88;5030281;28;20025;-88
2022/03/20 00:15:43;;;;;;;8.35;4.43;;;;;;;4.43;57.84;103097.91;5028688;28;20028;-87
2022/03/20 00:18:10;;;;;;;7.28;4.18;;;;;;;4.39;57.83;103099.66;5030117;28;20049;-88
2022/03/20 00:20:38;;;;;;;7.55;4.60;;;;;;;4.38;58.14;103097.00;5030428;28;20445;-87
2022/03/20 00:23:05;;;;;;;10.60;4.97;;;;;;;4.33;58.24;103085.50;5030273;28;20041;-87
2022/03/20 00:25:33;;;;;;;8.43;4.45;;;;;;;4.33;58.35;103085.50;5028425;28;20028;-87
2022/03/20 00:27:58;;;;;;;8.38;4.43;;;;;;;4.27;58.53;103077.56;5028751;28;20033;-88
2022/03/20 00:30:23;;;;;;;10.07;5.13;;;;;;;4.25;58.84;103075.75;5029978;28;20113;-87
2022/03/20 00:32:48;;;;;;;9.15;4.70;;;;;;;4.20;58.79;103069.56;5029345;28;20057;-87
2022/03/20 00:35:14;;;;;;;9.05;5.35;;;;;;;4.19;59.26;103061.66;5028592;28;20021;-88
2022/03/20 00:37:39;;;;;;;8.48;5.10;;;;;;;4.09;59.13;103038.69;5030494;28;20029;-87
2022/03/20 00:40:06;;;;;;;8.52;5.50;;;;;;;4.15;59.20;103054.56;5011195;28;20037;-87
2022/03/20 00:42:31;;;;;;;10.15;5.43;;;;;;;4.12;59.79;103046.63;5027730;28;20099;-87
2022/03/20 00:44:56;;;;;;;13.25;5.82;;;;;;;4.10;59.79;103053.66;5027640;28;20736;-87
2022/03/20 00:47:21;;;;;;;11.48;5.95;;;;;;;4.07;59.94;103043.94;5027974;28;20083;-88
2022/03/20 00:49:47;;;;;;;11.82;6.72;;;;;;;4.00;59.82;103029.81;5029408;28;20040;-88
2022/03/20 00:52:12;;;;;;;8.32;5.55;;;;;;;4.02;59.85;103040.38;5029581;28;20426;-89
2022/03/20 00:54:37;;;;;;;11.43;6.85;;;;;;;3.95;59.49;103028.88;5028029;28;20124;-88
2022/03/20 00:57:03;;;;;;;11.90;6.53;;;;;;;3.98;60.18;103035.94;5014709;28;20068;-87
2022/03/20 00:59:29;;;;;;;13.40;6.97;;;;;;;3.89;60.50;103025.31;5029479;28;20364;-87
2022/03/20 01:01:55;;;;;;;12.52;7.32;;;;;;;3.93;60.16;103017.44;5028941;28;20033;-88
2022/03/20 01:04:20;;;;;;;10.98;7.15;;;;;;;3.89;60.26;103020.03;5030368;28;20041;-87
2022/03/20 01:06:45;;;;;;;12.48;7.68;;;;;;;3.85;60.64;103019.09;5027200;28;20390;-88
2022/03/20 01:09:10;;;;;;;12.20;8.30;;;;;;;3.77;60.68;103012.84;5029274;28;20060;-87
2022/03/20 01:11:36;;;;;;;13.48;8.32;;;;;;;3.82;60.51;103019.06;5029049;28;20069;-88
2022/03/20 01:14:03;;;;;;;13.40;8.20;;;;;;;3.78;60.86;103014.63;5029396;28;20063;-87
2022/03/20 01:16:28;;;;;;;13.20;7.60;;;;;;;3.73;60.77;103005.78;5026739;28;20029;-87
2022/03/20 01:18:53;;;;;;;11.10;8.68;;;;;;;3.70;61.22;103006.63;5029154;28;20030;-88
2022/03/20 01:21:18;;;;;;;15.75;8.75;;;;;;;3.69;60.82;102996.97;5029263;28;20075;-87
2022/03/20 01:23:44;;;;;;;16.17;9.48;;;;;;;3.64;61.34;102993.41;5029625;28;20340;-88
2022/03/20 01:26:10;;;;;;;16.13;9.75;;;;;;;3.59;61.58;102988.91;5027325;28;20371;-89
2022/03/20 01:28:35;;;;;;;17.05;10.48;;;;;;;3.62;61.04;102983.69;5029463;28;20048;-88
2022/03/20 01:31:00;;;;;;;16.80;10.23;;;;;;;3.63;61.66;102982.81;5028831;28;20323;-88
2022/03/20 01:33:25;;;;;;;16.80;11.02;;;;;;;3.56;61.54;102968.72;5029104;28;20364;-88
2022/03/20 01:35:52;;;;;;;21.02;11.55;;;;;;;3.56;61.65;102959.94;5026123;28;20040;-88
2022/03/20 01:38:20;;;;;;;19.17;11.15;;;;;;;3.53;61.54;102957.25;5029103;28;20067;-89
2022/03/20 01:40:46;;;;;;;18.45;12.07;;;;;;;3.49;61.58;102957.22;5028583;28;20102;-88
2022/03/20 01:43:12;;;;;;;17.23;11.70;;;;;;;3.50;61.90;102958.09;5029070;28;20021;-88
2022/03/20 01:45:37;;;;;;;17.50;11.60;;;;;;;3.45;62.00;102951.88;5027453;28;20084;-88
2022/03/20 01:48:03;;;;;;;20.15;11.80;;;;;;;3.41;61.91;102957.97;5029241;28;20041;-88
2022/03/20 01:50:28;;;;;;;19.63;12.45;;;;;;;3.37;62.30;102957.06;5028574;28;20101;-88
2022/03/20 01:52:54;;;;;;;22.55;13.25;;;;;;;3.27;62.17;102943.78;5010991;28;20025;-88
2022/03/20 01:55:21;;;;;;;19.52;12.63;;;;;;;3.27;62.18;102949.03;5026833;28;20124;-88
2022/03/20 01:57:47;;;;;;;21.15;13.55;;;;;;;3.24;62.29;102941.97;5028351;28;20030;-88
2022/03/20 02:00:15;;;;;;;22.02;13.80;;;;;;;3.21;62.21;102936.66;5027217;28;20037;-88
2022/03/20 02:02:41;;;;;;;19.10;13.32;;;;;;;3.22;62.21;102938.47;5026807;28;20462;-87
2022/03/20 02:05:09;;;;;;;20.73;14.02;;;;;;;3.18;62.34;102931.38;5027442;28;20037;-88
2022/03/20 02:07:35;;;;;;;22.90;14.70;;;;;;;3.18;62.00;102936.66;5028536;28;20028;-87
2022/03/20 02:10:02;;;;;;;22.45;14.68;;;;;;;3.15;62.21;102929.59;5028023;28;20037;-88
2022/03/20 02:12:28;;;;;;;21.30;14.32;;;;;;;3.12;62.19;102923.41;5043517;28;20034;-88
2022/03/20 02:14:55;;;;;;;21.00;14.50;;;;;;;3.07;62.16;102915.44;5023986;28;20075;-88
2022/03/20 02:17:21;;;;;;;23.00;15.63;;;;;;;3.05;62.29;102913.63;5028400;28;20029;-88
2022/03/20 02:19:46;;;;;;;24.70;15.63;;;;;;;3.00;62.43;102909.19;5028682;28;20029;-88
2022/03/20 02:22:12;;;;;;;21.00;15.75;;;;;;;3.02;62.03;102911.88;5028059;28;20036;-88
2022/03/20 02:24:48;;;;;;;27.27;16.05;;;;;;;3.03;61.94;102910.13;5024600;28;20422;-88
2022/03/20 02:27:23;;;;;;;26.75;17.30;;;;;;;2.98;62.00;102905.69;5027856;28;20072;-88
2022/03/20 02:29:48;;;;;;;27.55;16.83;;;;;;;2.98;61.98;102895.16;5028145;28;20499;-88
2022/03/20 02:32:17;;;;;;;26.83;16.70;;;;;;;2.96;61.89;102890.72;5028687;28;20072;-87
2022/03/20 02:34:47;;;;;;;24.90;16.27;;;;;;;2.93;62.15;102895.97;5020355;28;20041;-88
2022/03/20 02:37:13;;;;;;;25.13;16.70;;;;;;;2.90;62.31;102891.53;5026424;28;20064;-88
2022/03/20 02:39:40;;;;;;;26.40;17.15;;;;;;;2.83;62.20;102871.28;5028386;28;20072;-88
2022/03/20 02:42:07;;;;;;;26.35;16.77;;;;;;;2.85;62.13;102881.84;5027726;28;20032;-88
2022/03/20 02:44:56;;;;;;;25.20;17.10;;;;;;;2.83;61.92;102873.03;5024552;28;20376;-88
2022/03/20 02:47:23;;;;;;;27.20;17.33;;;;;;;2.83;61.85;102886.16;5026782;28;20037;-88
2022/03/20 02:50:00;;;;;;;28.90;17.70;;;;;;;2.78;61.55;102870.34;5028137;28;20667;-88
2022/03/20 02:52:39;;;;;;;27.52;17.85;;;;;;;2.80;61.83;102868.63;5026412;28;20071;-87
2022/03/20 02:55:04;;;;;;;27.23;17.77;;;;;;;2.75;61.71;102860.63;5014174;28;20046;-86
2022/03/20 02:57:31;;;;;;;27.90;17.83;;;;;;;2.75;61.72;102867.66;5027219;28;20041;-87
2022/03/20 03:00:00;;;;;;;27.83;18.33;;;;;;;2.77;61.94;102867.69;5027532;28;20049;-87
2022/03/20 03:02:30;;;;;;;32.63;18.98;;;;;;;2.67;61.85;102861.41;5027095;28;20033;-87
2022/03/20 03:04:59;;;;;;;30.95;19.05;;;;;;;2.63;61.81;102855.22;5025783;28;20533;-88
2022/03/20 03:07:31;;;;;;;30.30;19.08;;;;;;;2.72;61.65;102857.13;5025836;28;20549;-87
2022/03/20 03:12:42;;;;;;;30.65;19.83;;;;;;;2.63;61.72;102855.22;5012149;28;20534;-87
2022/03/20 03:15:21;;;;;;;31.92;19.42;;;;;;;2.61;61.87;102838.53;5027134;28;20093;-87
2022/03/20 03:17:47;;;;;;;29.00;18.40;;;;;;;2.63;61.86;102838.56;5021456;28;20073;-87
2022/03/20 03:20:13;;;;;;;28.60;18.95;;;;;;;2.59;62.10;102836.75;5031016;28;20040;-87
2022/03/20 03:22:38;;;;;;;28.65;20.38;;;;;;;2.54;62.21;102841.06;4999403;28;20032;-87
2022/03/20 03:25:05;;;;;;;29.20;19.48;;;;;;;2.48;62.19;102828.72;5019157;28;20033;-88
2022/03/20 03:27:30;;;;;;;29.65;19.33;;;;;;;2.47;62.70;102830.47;5030580;28;20034;-88
2022/03/20 03:29:55;;;;;;;32.45;19.83;;;;;;;2.42;62.90;102824.25;5030655;28;20453;-87
2022/03/20 03:32:20;;;;;;;29.92;19.58;;;;;;;2.45;62.78;102828.66;5030363;28;20112;-87
2022/03/20 03:37:32;;;;;;;;;;;;;;;2.40;62.42;102812.84;5031448;28;20048;-87
2022/03/20 03:39:58;;;;;;;28.73;19.73;;;;;;;2.38;62.61;102806.69;5031161;28;19940;-87
2022/03/20 03:42:23;;;;;;;28.15;18.80;;;;;;;2.35;63.00;102811.91;5030469;28;20204;-87
2022/03/20 03:44:51;;;;;;;28.55;19.75;;;;;;;2.21;62.97;102789.78;5026306;28;20025;-87
2022/03/20 03:47:17;;;;;;;31.80;20.08;;;;;;;2.23;63.11;102793.31;5030922;28;20568;-87
2022/03/20 03:49:42;;;;;;;31.42;19.77;;;;;;;2.21;63.36;102790.66;5030913;28;20021;-86
2022/03/20 03:52:08;;;;;;;30.98;20.40;;;;;;;2.23;62.90;102801.19;5030039;28;20034;-87
2022/03/20 03:54:33;;;;;;;33.17;21.42;;;;;;;2.17;63.42;102783.63;5028931;28;20041;-86
2022/03/20 03:56:58;;;;;;;31.02;20.52;;;;;;;2.14;63.02;102785.31;5030762;28;20502;-87
2022/03/20 03:59:24;;;;;;;29.80;20.17;;;;;;;2.18;63.14;102788.00;5031180;28;20040;-89
2022/03/20 04:01:50;;;;;;;34.65;20.23;;;;;;;2.15;63.19;102776.56;5030421;28;20065;-87
2022/03/20 04:04:15;;;;;;;32.17;20.27;;;;;;;2.13;63.07;102773.91;5027787;28;20057;-87
2022/03/20 04:06:41;;;;;;;34.45;21.30;;;;;;;2.08;62.90;102770.31;5029213;28;20060;-87
2022/03/20 04:09:06;;;;;;;31.70;21.10;;;;;;;2.11;63.05;102766.88;5030825;28;20148;-88
2022/03/20 04:11:32;;;;;;;32.00;21.38;;;;;;;2.09;62.92;102763.31;5029834;28;20646;-87
2022/03/20 04:13:57;;;;;;;32.45;21.52;;;;;;;2.06;63.01;102765.91;5028995;28;20040;-88
2022/03/20 04:16:22;;;;;;;32.63;21.30;;;;;;;2.00;63.18;102751.81;5030329;28;20474;-89
2022/03/20 04:18:48;;;;;;;32.60;21.02;;;;;;;1.92;62.50;102745.59;5029564;28;20029;-87
2022/03/20 04:21:13;;;;;;;31.30;20.70;;;;;;;1.94;63.21;102742.97;5029754;28;20439;-88
2022/03/20 04:23:49;;;;;;;29.42;20.27;;;;;;;1.94;63.00;102742.97;5028777;28;20026;-88
2022/03/20 04:26:22;;;;;;;32.40;22.13;;;;;;;1.90;63.20;102743.78;5030047;28;20040;-86
2022/03/20 04:28:49;;;;;;;34.28;21.13;;;;;;;1.87;63.15;102731.47;5029508;28;20044;-87
2022/03/20 04:31:15;;;;;;;33.60;22.48;;;;;;;1.89;63.06;102727.16;5030319;28;20187;-88
2022/03/20 04:33:49;;;;;;;33.70;22.23;;;;;;;1.90;62.98;102731.53;5027628;28;20227;-88
2022/03/20 04:36:15;;;;;;;38.45;22.90;;;;;;;1.86;63.39;102729.72;5030163;28;20073;-88
2022/03/20 04:38:41;;;;;;;34.65;21.20;;;;;;;1.82;63.33;102730.53;5029733;28;20041;-87
2022/03/20 04:41:06;;;;;;;34.78;21.98;;;;;;;1.79;63.47;102729.59;5030523;28;20398;-88
2022/03/20 04:43:32;;;;;;;33.20;22.15;;;;;;;1.72;63.19;102724.28;5028842;28;20022;-89
2022/03/20 04:45:58;;;;;;;36.92;22.40;;;;;;;1.74;63.34;102719.91;5029684;28;20040;-88
2022/03/20 04:59:19;;;;;;;34.75;21.20;;;;;;;1.56;63.48;102690.75;5031133;28;20092;-88
2022/03/20 05:01:46;;;;;;;32.10;22.23;;;;;;;1.57;64.02;102691.63;5031049;28;20037;-88
2022/03/20 05:04:13;;;;;;;38.53;22.33;;;;;;;1.47;63.77;102686.25;5026995;28;20033;-88
2022/03/20 05:06:43;;;;;;;37.88;22.20;;;;;;;1.54;63.84;102696.84;5029636;28;20022;-87
2022/03/20 05:14:36;;;;;;;34.78;22.73;;;;;;;1.47;63.61;102681.00;5025411;28;20156;-87
2022/03/20 05:17:09;;;;;;;35.50;22.67;;;;;;;1.40;63.89;102679.13;5029188;28;20502;-86
2022/03/20 05:19:38;;;;;;;35.08;21.50;;;;;;;1.47;63.77;102674.88;5029639;28;20018;-88
2022/03/20 05:22:05;;;;;;;33.58;21.67;;;;;;;1.45;63.67;102674.81;5027570;28;20052;-87
2022/03/20 05:24:31;;;;;;;34.72;21.48;;;;;;;1.41;64.17;102670.38;5028056;28;20029;-88
2022/03/20 05:26:56;;;;;;;37.47;23.05;;;;;;;1.41;63.50;102665.13;5028882;28;20083;-88
2022/03/20 05:29:22;;;;;;;33.65;21.42;;;;;;;1.40;63.16;102676.50;5029570;28;20422;-89
2022/03/20 05:31:48;;;;;;;34.15;21.83;;;;;;;1.39;63.54;102668.63;5028853;28;20021;-88
2022/03/20 05:34:15;;;;;;;38.22;22.60;;;;;;;1.39;63.18;102668.63;5027039;28;20033;-88
2022/03/20 05:36:40;;;;;;;37.38;21.48;;;;;;;1.36;63.66;102668.56;5028695;28;20025;-88
2022/03/20 05:39:05;;;;;;;36.00;21.98;;;;;;;1.32;63.46;102667.63;5028208;28;20510;-88
2022/03/20 05:41:47;;;;;;;34.60;21.70;;;;;;;1.34;63.54;102657.16;5027803;28;20040;-87
2022/03/20 05:44:16;;;;;;;36.05;21.50;;;;;;;1.29;63.41;102645.69;5026936;28;20038;-88
2022/03/20 05:46:51;;;;;;;38.05;22.08;;;;;;;1.30;63.64;102648.38;5028586;28;20018;-87
2022/03/20 05:49:18;;;;;;;35.85;22.63;;;;;;;1.33;63.20;102651.03;5028730;28;20033;-88
2022/03/20 05:51:43;;;;;;;35.20;22.95;;;;;;;1.28;63.53;102647.44;5027821;28;20414;-88
2022/03/20 05:54:09;;;;;;;32.10;21.35;;;;;;;1.32;63.03;102653.63;5019365;28;20112;-89
2022/03/20 05:59:20;;;;;;;36.83;22.35;;;;;;;1.33;62.65;102655.38;5028216;28;20127;-87
2022/03/20 06:01:45;;;;;;;34.40;22.00;;;;;;;1.32;62.75;102657.13;5027048;28;20076;-88
2022/03/20 06:04:11;;;;;;;34.42;21.15;;;;;;;1.35;63.29;102654.56;5026511;28;20032;-87
2022/03/20 06:06:37;;;;;;;33.47;20.48;;;;;;;1.39;62.47;102655.50;5027766;28;20060;-87
2022/03/20 06:09:06;;;;;;;32.08;20.70;;;;;;;1.39;61.97;102651.13;5027973;28;20044;-87
2022/03/20 06:11:34;;;;;;;32.00;20.70;;;;;;;1.43;62.01;102658.19;5027608;28;20037;-88
2022/03/20 06:14:00;;;;;;;32.03;20.48;;;;;;;1.47;62.00;102660.00;5026834;28;20435;-87
2022/03/20 06:16:25;;;;;;;33.53;20.73;;;;;;;1.48;61.82;102651.28;5028197;28;20029;-87
2022/03/20 06:18:50;;;;;;;33.15;21.05;;;;;;;1.54;61.32;102655.72;5027816;28;20048;-87
2022/03/20 06:21:16;;;;;;;35.90;21.55;;;;;;;1.63;61.01;102647.09;5028368;28;20034;-87
2022/03/20 06:23:41;;;;;;;31.42;20.48;;;;;;;1.72;59.96;102649.88;5017155;28;20033;-87
2022/03/20 06:26:08;;;;;;;31.98;20.38;;;;;;;1.85;59.97;102651.81;5027934;28;20120;-87
2022/03/20 06:28:33;;;;;;;31.00;19.98;;;;;;;1.88;59.68;102640.47;5027732;28;20530;-88
2022/03/20 06:30:59;;;;;;;30.75;20.02;;;;;;;2.07;59.00;102652.09;5025773;28;20154;-87
2022/03/20 06:33:27;;;;;;;29.65;19.80;;;;;;;2.15;58.96;102642.59;5025991;28;20037;-87
2022/03/20 06:35:53;;;;;;;36.05;20.73;;;;;;;2.24;58.35;102640.94;5026301;28;20035;-86
2022/03/20 06:38:20;;;;;;;30.95;19.77;;;;;;;2.31;57.96;102641.03;5028235;28;20021;-87
2022/03/20 06:40:45;;;;;;;27.73;20.10;;;;;;;2.39;57.43;102632.38;5027499;28;20135;-87
2022/03/20 06:43:10;;;;;;;33.72;19.83;;;;;;;2.45;57.44;102632.44;5025339;28;20028;-87
2022/03/20 06:45:36;;;;;;;28.73;19.15;;;;;;;2.50;57.03;102625.47;5027599;28;20029;-88
2022/03/20 06:48:02;;;;;;;31.65;19.42;;;;;;;2.60;56.75;102625.59;5027392;28;20095;-88
2022/03/20 06:50:27;;;;;;;29.00;20.25;;;;;;;2.67;56.09;102619.50;5026831;28;20494;-88
2022/03/20 06:52:53;;;;;;;29.52;18.15;;;;;;;2.73;55.54;102619.59;5026435;28;20022;-88
2022/03/20 06:55:18;;;;;;;30.67;18.88;;;;;;;2.77;55.32;102620.50;5028848;28;20049;-89
2022/03/20 06:57:45;;;;;;;28.30;19.17;;;;;;;2.83;55.24;102616.16;5030845;28;20025;-88
2022/03/20 07:00:12;;;;;;;27.92;18.80;;;;;;;2.90;54.96;102610.09;5030414;28;20033;-88
2022/03/20 07:02:38;;;;;;;30.60;19.88;;;;;;;2.88;54.33;102601.31;5029298;28;20030;-87
2022/03/20 07:05:03;;;;;;;31.85;19.58;;;;;;;2.94;54.45;102598.75;5025771;28;20029;-88
2022/03/20 07:07:29;;;;;;;29.02;19.15;;;;;;;2.99;54.64;102601.41;5030719;28;20040;-88
2022/03/20 07:09:54;;;;;;;30.73;19.58;;;;;;;3.00;54.18;102600.53;5029879;28;20044;-88
2022/03/20 07:12:20;;;;;;;30.38;20.13;;;;;;;3.02;53.70;102590.06;5028359;28;20021;-88
2022/03/20 07:14:45;;;;;;;26.17;18.40;;;;;;;3.10;53.48;102599.75;5030405;28;20281;-88
2022/03/20 07:17:13;;;;;;;32.28;18.25;;;;;;;3.13;53.48;102581.34;5030758;28;20386;-87
2022/03/20 07:19:40;;;;;;;29.25;18.83;;;;;;;3.16;53.29;102580.50;5030215;28;20112;-88
2022/03/20 07:22:06;;;;;;;29.08;19.38;;;;;;;3.17;52.85;102587.53;5027921;28;20084;-87
2022/03/20 07:24:37;;;;;;;29.65;19.13;;;;;;;3.18;53.02;102570.88;5029956;28;20064;-88
2022/03/20 07:29:48;;;;;;;27.85;19.00;;;;;;;3.25;52.56;102573.53;5030337;28;20446;-88
2022/03/20 07:32:13;;;;;;;27.73;19.45;;;;;;;3.24;52.18;102570.91;5021244;28;20104;-88
2022/03/20 07:34:39;;;;;;;29.98;18.73;;;;;;;3.21;52.21;102570.88;5030710;28;20176;-88
2022/03/20 07:37:05;;;;;;;27.92;18.63;;;;;;;3.22;52.23;102581.44;5029863;28;20375;-88
2022/03/20 07:39:32;;;;;;;26.75;18.45;;;;;;;3.24;52.29;102577.06;5030027;28;20057;-88
2022/03/20 07:41:58;;;;;;;27.48;19.08;;;;;;;3.27;51.69;102577.97;5027488;28;20025;-87
2022/03/20 07:44:24;;;;;;;32.47;18.20;;;;;;;3.31;51.69;102569.22;5030254;28;20109;-89
2022/03/20 07:46:52;;;;;;;28.92;18.75;;;;;;;3.31;51.34;102561.31;5021672;28;20029;-88
2022/03/20 07:49:18;;;;;;;28.45;18.50;;;;;;;3.39;51.32;102573.66;5029736;28;20513;-88
2022/03/20 07:51:44;;;;;;;28.20;18.13;;;;;;;3.41;50.86;102579.81;5024802;28;20028;-88
2022/03/20 07:54:09;;;;;;;26.42;17.58;;;;;;;3.39;51.01;102578.94;5028698;28;20124;-86
2022/03/20 07:56:35;;;;;;;28.77;19.48;;;;;;;3.41;51.05;102565.75;5028040;28;20072;-91
2022/03/20 07:59:05;;;;;;;29.60;19.17;;;;;;;3.43;51.13;102566.66;5029793;28;20032;-87
2022/03/20 08:01:31;;;;;;;33.53;18.33;;;;;;;3.46;51.03;102566.66;5028531;28;20092;-87
2022/03/20 08:03:57;;;;;;;28.77;18.38;;;;;;;3.41;50.77;102553.47;5027277;28;20937;-89
2022/03/20 08:06:22;;;;;;;26.05;17.88;;;;;;;3.47;50.38;102566.69;5028016;28;20033;-88
2022/03/20 08:08:47;;;;;;;28.83;18.58;;;;;;;3.48;50.32;102554.41;5029545;28;20044;-88
2022/03/20 08:11:13;;;;;;;29.90;18.83;;;;;;;3.52;49.63;102571.09;5028623;28;20034;-88
2022/03/20 08:13:38;;;;;;;29.33;18.88;;;;;;;3.56;49.45;102563.22;5029610;28;20113;-88
2022/03/20 08:16:04;;;;;;;32.20;19.45;;;;;;;3.63;48.88;102558.84;5027779;28;20029;-87
2022/03/20 08:18:30;;;;;;;28.60;18.73;;;;;;;3.66;49.55;102553.63;5029945;28;20692;-87
2022/03/20 08:20:55;;;;;;;29.60;19.38;;;;;;;3.64;48.83;102537.81;5027538;28;20025;-88
2022/03/20 08:23:21;;;;;;;29.08;18.92;;;;;;;3.71;49.09;102552.75;5027933;28;20401;-88
2022/03/20 08:25:47;;;;;;;27.02;18.10;;;;;;;3.76;48.71;102534.34;5028824;28;20116;-88
2022/03/20 08:28:12;;;;;;;29.55;18.13;;;;;;;3.72;48.72;102527.28;5029686;28;20223;-88
2022/03/20 08:30:40;;;;;;;26.63;18.20;;;;;;;3.82;48.76;102538.78;5028776;28;20026;-88
2022/03/20 08:33:05;;;;;;;26.08;17.88;;;;;;;3.82;48.50;102530.88;5028046;28;20185;-87
2022/03/20 08:35:31;;;;;;;29.13;18.00;;;;;;;3.80;49.02;102517.69;5028025;28;20025;-88
2022/03/20 08:37:56;;;;;;;25.48;17.60;;;;;;;3.85;48.68;102526.50;5029214;28;20037;-87
2022/03/20 08:40:23;;;;;;;27.15;18.00;;;;;;;3.87;48.89;102521.22;5014719;28;20073;-87
2022/03/20 08:42:54;;;;;;;29.02;17.80;;;;;;;3.92;48.98;102536.16;5015099;28;20485;-87
2022/03/20 08:45:26;;;;;;;32.67;19.73;;;;;;;3.93;48.39;102539.69;5014117;28;20029;-86
2022/03/20 08:47:52;;;;;;;29.83;18.70;;;;;;;3.93;49.05;102537.03;5009530;28;20033;-88
2022/03/20 08:50:18;;;;;;;27.73;18.75;;;;;;;3.89;48.75;102533.53;5014219;28;20481;-87
2022/03/20 08:52:45;;;;;;;31.58;19.23;;;;;;;3.90;48.77;102537.06;5013615;28;20026;-88
2022/03/20 08:55:12;;;;;;;30.92;18.98;;;;;;;3.92;49.48;102535.28;5013631;28;20095;-87
2022/03/20 08:57:42;;;;;;;26.70;18.58;;;;;;;3.89;48.64;102514.22;5019588;28;20048;-87
2022/03/20 09:00:13;;;;;;;30.48;19.67;;;;;;;4.02;48.39;102530.94;5011790;28;20026;-88
2022/03/20 09:02:38;;;;;;;28.52;19.02;;;;;;;4.23;47.98;102523.97;5013386;28;20104;-87
2022/03/20 09:05:05;;;;;;;29.48;19.83;;;;;;;4.52;47.93;102514.38;5018068;28;20032;-89
2022/03/20 09:07:30;;;;;;;30.60;19.10;;;;;;;4.89;47.01;102525.78;5021032;28;20021;-89
2022/03/20 09:09:56;;;;;;;26.88;18.92;;;;;;;5.73;46.05;102518.56;5026110;28;20032;-91
2022/03/20 09:12:21;;;;;;;26.90;19.05;;;;;;;7.23;42.63;102504.28;5026429;28;20033;-89
2022/03/20 09:14:47;;;;;;;28.42;19.58;;;;;;;8.65;39.99;102501.53;5017154;28;20057;-90
2022/03/20 09:19:57;;;;;;;;;;;;;;;10.86;39.59;102489.78;5029626;28;20099;-91
2022/03/20 09:22:25;;;;;;;27.10;18.13;;;;;;;11.77;33.73;102473.94;5022527;28;19956;-89
2022/03/20 09:24:50;;;;;;;28.20;20.13;;;;;;;12.42;32.59;102490.63;5028476;28;20061;-89
2022/03/20 09:27:16;;;;;;;34.15;20.70;;;;;;;12.70;31.47;102474.53;5028589;28;20446;-90
2022/03/20 09:29:41;;;;;;;30.35;20.02;;;;;;;12.06;31.47;102491.78;5027904;28;20084;-89
2022/03/20 09:32:07;;;;;;;33.65;20.40;;;;;;;10.94;33.14;102473.59;5014697;28;20037;-90
2022/03/20 09:34:33;;;;;;;30.73;21.45;;;;;;;10.36;34.35;102481.25;5028434;28;20065;-89
2022/03/20 09:36:58;;;;;;;28.58;20.48;;;;;;;10.34;34.80;102463.59;5024637;28;20032;-89
2022/03/20 09:39:26;;;;;;;31.10;21.35;;;;;;;10.67;34.38;102467.22;5018816;28;20201;-89
2022/03/20 09:41:54;;;;;;;30.15;21.13;;;;;;;10.93;34.07;102470.06;5027193;28;20056;-88
2022/03/20 09:44:22;;;;;;;30.90;21.95;;;;;;;10.72;34.44;102463.50;5028215;28;20029;-89
2022/03/20 09:46:48;;;;;;;28.17;20.33;;;;;;;10.62;34.67;102450.50;5027192;28;20029;-88
2022/03/20 09:49:16;;;;;;;30.73;21.50;;;;;;;10.69;34.53;102455.59;5028015;28;20044;-88
2022/03/20 09:51:42;;;;;;;30.27;21.75;;;;;;;10.16;35.12;102470.19;5025085;28;20466;-88
2022/03/20 09:54:08;;;;;;;31.45;22.90;;;;;;;9.42;36.29;102471.78;5027481;28;20060;-88
2022/03/20 09:56:34;;;;;;;33.15;23.60;;;;;;;8.60;37.57;102479.47;5027692;28;20042;-89
2022/03/20 09:58:59;;;;;;;32.33;23.23;;;;;;;8.02;39.19;102482.09;5027655;28;20516;-88
2022/03/20 10:01:25;;;;;;;35.10;23.45;;;;;;;7.60;39.91;102480.00;5017057;28;20065;-87
2022/03/20 10:04:15;;;;;;;34.03;23.63;;;;;;;7.34;40.96;102472.38;5008119;28;20376;-88
2022/03/20 10:06:41;;;;;;;37.13;23.95;;;;;;;7.11;41.39;102479.72;5008224;28;20018;-88
2022/03/20 10:09:09;;;;;;;38.15;24.00;;;;;;;6.93;41.85;102486.03;5006618;28;20057;-88
2022/03/20 10:11:35;;;;;;;37.05;24.05;;;;;;;6.71;43.00;102483.59;5011429;28;20036;-89
2022/03/20 10:14:18;;;;;;;35.58;23.80;;;;;;;6.72;43.31;102461.53;5028309;28;20029;-89
2022/03/20 10:17:06;;;;;;;37.20;23.15;;;;;;;6.69;43.21;102477.44;5026435;28;20377;-88
2022/03/20 10:19:32;;;;;;;35.28;23.52;;;;;;;6.64;45.26;102471.28;5025688;28;20033;-90
2022/03/20 10:22:04;;;;;;;37.28;24.25;;;;;;;6.47;48.32;102487.31;5020208;28;20493;-89
2022/03/20 10:24:33;;;;;;;35.13;24.92;;;;;;;6.31;50.90;102487.44;5027600;28;20060;-90
2022/03/20 10:26:58;;;;;;;42.15;28.67;;;;;;;6.06;52.38;102503.47;5028158;28;20041;-89
2022/03/20 10:29:23;;;;;;;41.92;26.50;;;;;;;5.94;53.12;102487.69;5031588;28;20060;-88
2022/03/20 10:31:50;;;;;;;40.60;26.15;;;;;;;5.78;53.91;102470.13;5015440;28;20041;-88
2022/03/20 10:34:17;;;;;;;40.47;26.33;;;;;;;5.82;54.51;102488.59;5012076;28;20026;-88
2022/03/20 10:36:43;;;;;;;38.95;26.55;;;;;;;6.02;54.84;102488.53;5011226;28;20483;-88
2022/03/20 10:39:27;;;;;;;40.72;25.92;;;;;;;6.32;53.98;102486.56;5012124;28;20069;-88
2022/03/20 10:41:53;;;;;;;40.10;26.10;;;;;;;6.76;54.21;102487.97;5028360;28;20029;-89
2022/03/20 10:44:24;;;;;;;39.35;24.83;;;;;;;6.83;53.95;102481.75;5031191;28;20028;-88
2022/03/20 10:47:09;;;;;;;39.00;25.58;;;;;;;6.59;54.63;102494.28;5031384;28;20033;-88
2022/03/20 10:49:35;;;;;;;39.85;27.48;;;;;;;6.19;56.06;102501.63;5031364;28;20034;-88
2022/03/20 10:52:09;;;;;;;43.08;27.65;;;;;;;5.87;57.57;102505.28;5030910;28;20083;-90
2022/03/20 10:54:46;;;;;;;43.83;27.83;;;;;;;5.83;58.14;102494.75;5031877;28;20084;-89
2022/03/20 10:57:13;;;;;;;44.03;28.50;;;;;;;5.89;58.74;102503.50;5032178;28;20026;-89
2022/03/20 10:59:40;;;;;;;41.15;27.63;;;;;;;5.97;61.12;102504.38;5046320;28;20032;-90
2022/03/20 11:02:19;;;;;;;41.10;27.58;;;;;;;5.99;61.68;102502.63;5013048;28;20439;-90
2022/03/20 11:04:44;;;;;;;43.65;28.25;;;;;;;5.85;62.85;102504.44;5031308;28;20087;-91
2022/03/20 11:07:16;;;;;;;44.63;28.98;;;;;;;5.63;63.95;102495.69;5032968;28;20033;-89
2022/03/20 11:09:44;;;;;;;43.55;28.30;;;;;;;5.56;63.68;102507.19;5030016;28;20029;-91
2022/03/20 11:12:14;;;;;;;47.42;29.42;;;;;;;5.49;64.20;102510.72;5013486;28;20030;-90
2022/03/20 11:14:43;;;;;;;43.08;27.95;;;;;;;5.44;63.65;102507.22;5014609;28;20261;-89
2022/03/20 11:17:12;;;;;;;42.97;28.92;;;;;;;5.48;64.01;102509.84;5025862;28;20424;-89
2022/03/20 11:19:41;;;;;;;42.67;29.38;;;;;;;5.53;63.81;102507.19;5030755;28;20076;-88
2022/03/20 11:22:09;;;;;;;45.38;27.55;;;;;;;5.60;64.06;102521.25;5030966;28;20032;-87
2022/03/20 11:24:40;;;;;;;42.40;27.60;;;;;;;5.59;65.53;102487.78;5031655;28;20037;-90
2022/03/20 11:27:06;;;;;;;46.60;29.25;;;;;;;5.74;65.33;102493.03;5032159;28;20039;-88
2022/03/20 11:29:40;;;;;;;43.50;28.98;;;;;;;5.74;64.10;102503.59;5029568;28;20124;-90
2022/03/20 11:32:08;;;;;;;47.78;29.60;;;;;;;5.88;64.71;102491.19;5020963;28;20402;-87
2022/03/20 11:34:33;;;;;;;41.63;27.58;;;;;;;6.22;62.79;102477.78;5029278;28;20042;-87
2022/03/20 11:37:03;;;;;;;44.78;27.25;;;;;;;6.63;59.46;102492.50;5028856;28;20116;-88
2022/03/20 11:39:29;;;;;;;40.45;26.75;;;;;;;6.57;59.02;102469.63;5028163;28;20037;-89
2022/03/20 11:42:24;;;;;;;39.83;26.77;;;;;;;6.69;58.76;102484.50;5030832;28;20418;-88
2022/03/20 11:45:10;;;;;;;41.90;28.55;;;;;;;6.71;59.48;102488.88;5035646;28;20323;-89
2022/03/20 11:47:37;;;;;;;41.63;27.95;;;;;;;6.66;59.25;102492.47;5031679;28;20021;-87
2022/03/20 11:50:20;;;;;;;42.55;28.10;;;;;;;6.74;59.56;102482.69;5028778;28;20033;-88